Terminal Aerodrome Forecast
Issued by NWS

Home | Current Version | Previous Version | Graphics & Text | Print | Product List | Glossary Off
Versions: 1 2 3 4 5 6 7 8 9 10 11 12 13 14 15 16 17 18 19 20 21

000
FTUS43 KMPX 302300
TAFRNH
TAF
KRNH 302337Z 3100/3124 32015G24KT P6SM OVC035
     FM310500 34016G22KT P6SM BKN045
     FM310800 35012KT P6SM SKC
     FM311500 36009KT P6SM SKC=

USA.gov is the U.S. government's official web portal to all federal, state and local government web resources and services.